createdAt,value
2018-12-24T00:01:17.103Z,13.14
2018-12-24T00:03:48.886Z,13.16
2018-12-24T00:06:20.276Z,13.18
2018-12-24T00:08:51.796Z,13.13
2018-12-24T00:11:23.220Z,13.10
2018-12-24T00:13:54.843Z,13.16
2018-12-24T00:16:26.181Z,13.20
2018-12-24T00:18:58.557Z,13.20
2018-12-24T00:21:29.996Z,13.18
2018-12-24T00:24:01.805Z,13.19
2018-12-24T00:26:33.217Z,13.24
2018-12-24T00:29:04.659Z,13.22
2018-12-24T00:31:36.019Z,13.19
2018-12-24T00:34:07.467Z,13.17
2018-12-24T00:36:39.408Z,13.10
2018-12-24T00:39:11.122Z,12.98
2018-12-24T00:41:42.538Z,12.96
2018-12-24T00:44:14.007Z,12.96
2018-12-24T00:46:45.452Z,12.96
2018-12-24T00:49:16.835Z,12.94
2018-12-24T00:51:48.328Z,12.92
2018-12-24T00:54:19.717Z,12.82
2018-12-24T00:56:51.125Z,12.69
2018-12-24T00:59:22.493Z,12.63
2018-12-24T01:01:53.911Z,12.66
2018-12-24T01:04:25.320Z,12.59
2018-12-24T01:06:56.736Z,12.57
2018-12-24T01:09:28.182Z,12.53
2018-12-24T01:11:59.506Z,12.56
2018-12-24T01:14:30.869Z,12.55
2018-12-24T01:17:02.227Z,12.40
2018-12-24T01:19:33.612Z,12.40
2018-12-24T01:22:05.084Z,12.41
2018-12-24T01:24:36.527Z,12.41
2018-12-24T01:27:07.943Z,12.33
2018-12-24T01:29:39.325Z,12.29
2018-12-24T01:32:10.648Z,12.25
2018-12-24T01:34:42.005Z,12.11
2018-12-24T01:37:13.458Z,12.00
2018-12-24T01:39:44.811Z,11.90
2018-12-24T01:42:16.281Z,11.90
2018-12-24T01:44:47.709Z,11.87
2018-12-24T01:47:19.169Z,11.88
2018-12-24T01:49:50.690Z,11.86
2018-12-24T01:52:22.134Z,11.78
2018-12-24T01:54:53.529Z,11.81
2018-12-24T01:57:25.293Z,11.91
2018-12-24T01:59:57.046Z,11.88
2018-12-24T02:02:28.386Z,11.93
2018-12-24T02:04:59.881Z,11.98
2018-12-24T02:07:31.392Z,11.97
2018-12-24T02:10:03.293Z,12.01
2018-12-24T02:12:42.159Z,12.00
2018-12-24T02:15:08.335Z,12.06
2018-12-24T02:17:39.721Z,12.00
2018-12-24T02:20:12.312Z,12.02
2018-12-24T02:22:43.660Z,11.98
2018-12-24T02:25:15.073Z,12.12
2018-12-24T02:27:46.842Z,12.04
2018-12-24T02:30:19.265Z,12.05
2018-12-24T02:32:50.739Z,12.16
2018-12-24T02:35:22.312Z,12.18
2018-12-24T02:37:53.695Z,12.25
2018-12-24T02:40:25.055Z,12.24
2018-12-24T02:42:56.669Z,12.22
2018-12-24T02:45:28.395Z,12.16
2018-12-24T02:47:59.819Z,12.12
2018-12-24T02:50:31.191Z,12.08
2018-12-24T02:53:02.664Z,12.13
2018-12-24T02:55:34.070Z,12.14
2018-12-24T02:58:05.516Z,12.13
2018-12-24T03:00:36.868Z,12.10
2018-12-24T03:03:08.316Z,12.12
2018-12-24T03:05:39.685Z,12.13
2018-12-24T03:08:11.120Z,12.15
2018-12-24T03:10:42.461Z,12.19
2018-12-24T03:13:14.016Z,12.16
2018-12-24T03:15:45.369Z,12.16
2018-12-24T03:18:16.819Z,12.24
2018-12-24T03:20:48.180Z,12.33
2018-12-24T03:23:19.625Z,12.32
2018-12-24T03:25:50.966Z,12.33
2018-12-24T03:28:22.317Z,12.31
2018-12-24T03:30:53.717Z,12.37
2018-12-24T03:33:25.155Z,12.36
2018-12-24T03:35:56.649Z,12.46
2018-12-24T03:38:28.138Z,12.46
2018-12-24T03:41:00.356Z,12.46
2018-12-24T03:43:31.752Z,12.44
2018-12-24T03:46:03.090Z,12.48
2018-12-24T03:48:34.541Z,12.52
2018-12-24T03:51:05.887Z,12.35
2018-12-24T03:53:37.329Z,12.26
2018-12-24T03:56:08.734Z,12.27
2018-12-24T03:58:40.163Z,12.22
2018-12-24T04:01:11.594Z,12.27
2018-12-24T04:03:43.052Z,12.24
2018-12-24T04:06:14.392Z,12.21
2018-12-24T04:08:46.203Z,12.16
2018-12-24T04:11:17.663Z,12.20
2018-12-24T04:13:49.023Z,12.25
2018-12-24T04:16:23.388Z,12.31
2018-12-24T04:18:55.180Z,12.27
2018-12-24T04:21:26.579Z,12.34
2018-12-24T04:23:58.016Z,12.27
2018-12-24T04:26:29.561Z,12.26
2018-12-24T04:29:00.908Z,12.28
2018-12-24T04:31:32.316Z,12.26
2018-12-24T04:34:04.093Z,12.31
2018-12-24T04:36:35.571Z,12.25
2018-12-24T04:39:07.470Z,12.36
2018-12-24T04:41:38.967Z,12.26
2018-12-24T04:44:10.351Z,12.29
2018-12-24T04:46:41.770Z,12.30
2018-12-24T04:49:13.126Z,12.23
2018-12-24T04:51:44.554Z,12.31
2018-12-24T04:54:15.953Z,12.35
2018-12-24T04:56:47.411Z,12.30
2018-12-24T04:59:18.861Z,12.30
2018-12-24T05:01:50.697Z,12.30
2018-12-24T05:04:22.075Z,12.31
2018-12-24T05:06:53.412Z,12.26
2018-12-24T05:09:25.013Z,12.26
2018-12-24T05:11:56.426Z,12.23
2018-12-24T05:14:30.255Z,12.20
2018-12-24T05:17:01.677Z,11.85
2018-12-24T05:19:33.465Z,11.51
2018-12-24T05:22:05.424Z,11.34
2018-12-24T05:24:36.753Z,10.73
2018-12-24T05:27:08.107Z,10.41
2018-12-24T05:29:39.657Z,10.24
2018-12-24T05:32:11.337Z,10.18
2018-12-24T05:34:42.751Z,10.16
2018-12-24T05:37:14.206Z,10.13
2018-12-24T05:39:45.657Z,10.14
2018-12-24T05:42:17.476Z,10.19
2018-12-24T05:44:49.415Z,10.06
2018-12-24T05:47:20.742Z,9.84
2018-12-24T05:49:52.199Z,9.84
2018-12-24T05:52:23.516Z,9.71
2018-12-24T05:54:56.142Z,9.67
2018-12-24T05:57:27.558Z,9.61
2018-12-24T05:59:59.017Z,9.55
2018-12-24T06:02:30.571Z,9.50
2018-12-24T06:05:02.015Z,9.41
2018-12-24T06:07:33.375Z,9.36
2018-12-24T06:10:05.307Z,9.34
2018-12-24T06:12:36.671Z,9.27
2018-12-24T06:15:08.130Z,9.21
2018-12-24T06:17:39.483Z,9.23
2018-12-24T06:20:10.931Z,9.21
2018-12-24T06:22:42.274Z,9.18
2018-12-24T06:25:13.721Z,9.10
2018-12-24T06:27:45.189Z,9.04
2018-12-24T06:30:16.969Z,9.00
2018-12-24T06:32:48.588Z,8.93
2018-12-24T06:35:20.073Z,8.83
2018-12-24T06:37:51.492Z,8.82
2018-12-24T06:40:22.873Z,8.83
2018-12-24T06:42:54.265Z,8.74
2018-12-24T06:45:25.699Z,8.75
2018-12-24T06:47:57.041Z,8.72
2018-12-24T06:50:28.490Z,8.77
2018-12-24T06:52:59.880Z,8.70
2018-12-24T06:55:31.398Z,8.64
2018-12-24T06:58:02.767Z,8.55
2018-12-24T07:00:34.164Z,8.44
2018-12-24T07:03:05.511Z,8.40
2018-12-24T07:05:37.502Z,8.34
2018-12-24T07:08:08.926Z,8.27
2018-12-24T07:10:40.924Z,8.17
2018-12-24T07:13:12.295Z,8.11
2018-12-24T07:15:44.640Z,8.07
2018-12-24T07:18:17.074Z,8.03
2018-12-24T07:20:48.490Z,8.02
2018-12-24T07:23:19.836Z,7.95
2018-12-24T07:25:51.244Z,7.92
2018-12-24T07:28:22.606Z,7.96
2018-12-24T07:30:54.187Z,7.95
2018-12-24T07:33:26.559Z,7.92
2018-12-24T07:35:57.955Z,7.95
2018-12-24T07:38:31.319Z,7.87
2018-12-24T07:41:02.722Z,7.80
2018-12-24T07:43:34.168Z,7.68
2018-12-24T07:46:05.779Z,7.60
2018-12-24T07:48:37.246Z,7.56
2018-12-24T07:51:09.663Z,7.46
2018-12-24T07:53:41.149Z,7.43
2018-12-24T07:56:12.879Z,7.41
2018-12-24T07:58:44.625Z,7.36
2018-12-24T08:01:16.108Z,7.32
2018-12-24T08:03:47.621Z,7.28
2018-12-24T08:06:19.113Z,7.28
2018-12-24T08:08:50.879Z,7.25
2018-12-24T08:11:22.260Z,7.22
2018-12-24T08:13:53.712Z,7.21
2018-12-24T08:16:25.114Z,7.16
2018-12-24T08:18:56.475Z,7.17
2018-12-24T08:21:27.856Z,7.23
2018-12-24T08:23:59.326Z,7.23
2018-12-24T08:26:30.831Z,7.21
2018-12-24T08:29:02.366Z,7.21
2018-12-24T08:31:33.759Z,7.20
2018-12-24T08:34:05.452Z,7.20
2018-12-24T08:36:37.222Z,7.20
2018-12-24T08:39:08.665Z,7.21
2018-12-24T08:41:40.009Z,7.18
2018-12-24T08:44:11.495Z,7.16
2018-12-24T08:46:43.543Z,7.16
2018-12-24T08:49:15.113Z,7.20
2018-12-24T08:51:46.618Z,7.23
2018-12-24T08:54:18.135Z,7.23
2018-12-24T08:56:49.641Z,7.26
2018-12-24T08:59:21.108Z,7.27
2018-12-24T09:01:52.914Z,7.25
2018-12-24T09:04:24.444Z,7.25
2018-12-24T09:06:56.161Z,7.33
2018-12-24T09:09:27.602Z,7.37
2018-12-24T09:11:59.029Z,7.43
2018-12-24T09:14:30.817Z,7.45
2018-12-24T09:17:02.193Z,7.46
2018-12-24T09:19:34.239Z,7.57
2018-12-24T09:22:06.161Z,7.57
2018-12-24T09:24:37.829Z,7.55
2018-12-24T09:27:09.456Z,7.56
2018-12-24T09:29:42.526Z,7.58
2018-12-24T09:32:13.944Z,7.64
2018-12-24T09:34:45.500Z,7.65
2018-12-24T09:37:17.020Z,7.72
2018-12-24T09:39:48.483Z,7.75
2018-12-24T09:42:19.956Z,7.74
2018-12-24T09:44:58.726Z,7.73
2018-12-24T09:47:24.448Z,7.77
2018-12-24T09:49:55.884Z,7.76
2018-12-24T09:52:27.242Z,7.83
2018-12-24T09:54:58.679Z,7.78
2018-12-24T09:57:30.058Z,7.63
2018-12-24T10:00:01.510Z,7.53
2018-12-24T10:02:41.320Z,7.51
2018-12-24T10:05:14.582Z,7.41
2018-12-24T10:07:45.993Z,7.36
2018-12-24T10:10:19.804Z,7.30
2018-12-24T10:12:51.506Z,7.29
2018-12-24T10:15:22.982Z,7.26
2018-12-24T10:17:56.777Z,7.27
2018-12-24T10:20:30.127Z,7.19
2018-12-24T10:23:01.568Z,7.18
2018-12-24T10:25:33.026Z,7.19
2018-12-24T10:28:05.469Z,7.18
2018-12-24T10:30:36.967Z,7.22
2018-12-24T10:33:08.477Z,7.30
2018-12-24T10:35:39.950Z,7.35
2018-12-24T10:38:11.632Z,7.42
2018-12-24T10:40:57.179Z,7.66
2018-12-24T10:43:28.655Z,7.75
2018-12-24T10:46:00.363Z,7.78
2018-12-24T10:48:31.774Z,7.88
2018-12-24T10:51:03.275Z,7.80
2018-12-24T10:53:34.975Z,7.66
2018-12-24T10:56:06.546Z,7.57
2018-12-24T10:58:38.019Z,7.53
2018-12-24T11:01:09.484Z,7.49
2018-12-24T11:03:40.866Z,7.48
2018-12-24T11:06:12.272Z,7.57
2018-12-24T11:08:43.761Z,7.79
2018-12-24T11:11:16.997Z,8.13
2018-12-24T11:13:48.970Z,8.51
2018-12-24T11:16:20.545Z,8.85
2018-12-24T11:18:51.859Z,8.79
2018-12-24T11:21:23.408Z,8.91
2018-12-24T11:23:55.006Z,9.09
2018-12-24T11:26:26.437Z,9.13
2018-12-24T11:28:57.951Z,8.97
2018-12-24T11:31:29.985Z,8.84
2018-12-24T11:34:01.386Z,8.53
2018-12-24T11:36:32.885Z,8.47
2018-12-24T11:39:05.291Z,8.38
2018-12-24T11:41:36.669Z,8.22
2018-12-24T11:44:08.025Z,8.64
2018-12-24T11:46:39.745Z,10.02
2018-12-24T11:49:11.162Z,11.55
2018-12-24T11:51:42.588Z,12.11
2018-12-24T11:54:13.927Z,12.53
2018-12-24T11:56:45.416Z,14.59
2018-12-24T11:59:16.879Z,15.59
2018-12-24T12:01:48.607Z,15.21
2018-12-24T12:04:19.995Z,15.80
2018-12-24T12:06:51.396Z,15.68
2018-12-24T12:09:22.791Z,16.10
2018-12-24T12:11:54.180Z,16.38
2018-12-24T12:14:25.588Z,15.69
2018-12-24T12:16:57.160Z,13.96
2018-12-24T12:19:28.651Z,11.94
2018-12-24T12:22:00.118Z,11.22
2018-12-24T12:24:33.697Z,10.33
2018-12-24T12:27:05.189Z,9.78
2018-12-24T12:29:36.603Z,9.43
2018-12-24T12:32:08.079Z,9.22
2018-12-24T12:34:39.423Z,9.24
2018-12-24T12:37:10.884Z,8.98
2018-12-24T12:39:42.332Z,8.98
2018-12-24T12:42:14.058Z,9.08
2018-12-24T12:44:45.478Z,9.00
2018-12-24T12:47:16.967Z,8.80
2018-12-24T12:49:49.692Z,8.80
2018-12-24T12:52:21.166Z,8.87
2018-12-24T12:54:52.527Z,8.88
2018-12-24T12:57:24.149Z,8.87
2018-12-24T12:59:55.661Z,8.78
2018-12-24T13:02:27.092Z,8.61
2018-12-24T13:04:58.554Z,8.59
2018-12-24T13:07:29.974Z,8.63
2018-12-24T13:10:01.332Z,8.67
2018-12-24T13:12:33.356Z,8.76
2018-12-24T13:15:04.745Z,8.80
2018-12-24T13:17:36.168Z,8.76
2018-12-24T13:20:07.631Z,8.61
2018-12-24T13:22:39.108Z,8.55
2018-12-24T13:25:10.417Z,8.57
2018-12-24T13:27:41.873Z,8.64
2018-12-24T13:30:13.251Z,8.63
2018-12-24T13:32:44.985Z,8.61
2018-12-24T13:35:16.471Z,8.55
2018-12-24T13:37:47.927Z,8.47
2018-12-24T13:40:19.363Z,8.48
2018-12-24T13:42:50.799Z,8.45
2018-12-24T13:45:22.885Z,8.43
2018-12-24T13:47:54.336Z,8.39
2018-12-24T13:50:25.858Z,8.25
2018-12-24T13:52:57.737Z,8.15
2018-12-24T13:55:30.227Z,8.31
2018-12-24T13:58:01.649Z,8.59
2018-12-24T14:00:33.111Z,8.76
2018-12-24T14:03:04.581Z,8.88
2018-12-24T14:05:36.106Z,8.98
2018-12-24T14:08:07.689Z,9.33
2018-12-24T14:10:39.135Z,10.84
2018-12-24T14:13:10.614Z,10.20
2018-12-24T14:15:42.092Z,10.20
2018-12-24T14:18:13.484Z,10.33
2018-12-24T14:20:44.861Z,10.36
2018-12-24T14:23:16.401Z,10.40
2018-12-24T14:25:47.936Z,11.91
2018-12-24T14:28:19.492Z,11.91
2018-12-24T14:30:51.177Z,12.85
2018-12-24T14:33:22.625Z,13.13
2018-12-24T14:35:54.182Z,12.98
2018-12-24T14:38:25.625Z,13.40
2018-12-24T14:40:57.957Z,13.14
2018-12-24T14:43:29.400Z,13.57
2018-12-24T14:46:00.760Z,14.59
2018-12-24T14:48:32.225Z,14.16
2018-12-24T14:51:03.595Z,12.74
2018-12-24T14:53:35.102Z,11.19
2018-12-24T14:56:06.486Z,9.75
2018-12-24T14:58:38.109Z,9.14
2018-12-24T15:01:09.603Z,8.01
2018-12-24T15:03:41.059Z,8.01
2018-12-24T15:06:12.491Z,7.63
2018-12-24T15:08:44.020Z,7.32
2018-12-24T15:11:15.428Z,7.09
2018-12-24T15:13:47.581Z,6.95
2018-12-24T15:16:19.132Z,6.74
2018-12-24T15:18:50.596Z,6.60
2018-12-24T15:21:21.928Z,6.45
2018-12-24T15:23:53.316Z,6.33
2018-12-24T15:26:24.788Z,6.26
2018-12-24T15:28:56.349Z,6.17
2018-12-24T15:31:27.808Z,6.09
2018-12-24T15:33:59.220Z,5.97
2018-12-24T15:36:32.185Z,5.93
2018-12-24T15:39:05.581Z,5.74
2018-12-24T15:41:37.034Z,5.61
2018-12-24T15:44:08.604Z,5.41
2018-12-24T15:46:42.807Z,5.38
2018-12-24T15:49:14.149Z,5.37
2018-12-24T15:51:45.606Z,5.24
2018-12-24T15:54:17.128Z,5.11
2018-12-24T15:56:48.559Z,5.01
2018-12-24T15:59:21.575Z,4.88
2018-12-24T16:01:52.942Z,4.74
2018-12-24T16:04:24.366Z,4.58
2018-12-24T16:06:55.841Z,4.53
2018-12-24T16:09:27.271Z,4.36
2018-12-24T16:11:58.710Z,4.31
2018-12-24T16:14:30.183Z,4.25
2018-12-24T16:17:01.620Z,4.20
2018-12-24T16:19:33.170Z,4.07
2018-12-24T16:22:04.539Z,3.92
2018-12-24T16:24:35.948Z,3.96
2018-12-24T16:27:07.341Z,4.01
2018-12-24T16:29:38.756Z,4.07
2018-12-24T16:32:10.270Z,4.05
2018-12-24T16:34:41.649Z,3.87
2018-12-24T16:37:13.144Z,3.76
2018-12-24T16:39:44.642Z,3.70
2018-12-24T16:42:16.059Z,3.72
2018-12-24T16:44:47.507Z,3.82
2018-12-24T16:47:19.038Z,3.85
2018-12-24T16:49:50.518Z,3.88
2018-12-24T16:52:21.924Z,3.87
2018-12-24T16:54:53.362Z,3.91
2018-12-24T16:57:24.763Z,3.97
2018-12-24T16:59:56.637Z,3.97
2018-12-24T17:02:28.073Z,3.95
2018-12-24T17:04:59.471Z,3.97
2018-12-24T17:07:30.864Z,3.93
2018-12-24T17:10:02.321Z,3.90
2018-12-24T17:12:33.783Z,3.97
2018-12-24T17:15:05.647Z,4.07
2018-12-24T17:17:37.097Z,4.11
2018-12-24T17:20:08.475Z,4.29
2018-12-24T17:22:39.942Z,4.54
2018-12-24T17:25:11.398Z,4.70
2018-12-24T17:27:42.815Z,4.81
2018-12-24T17:30:14.272Z,4.88
2018-12-24T17:32:45.750Z,4.92
2018-12-24T17:35:18.434Z,4.94
2018-12-24T17:37:49.886Z,4.93
2018-12-24T17:40:21.227Z,4.94
2018-12-24T17:42:52.700Z,4.91
2018-12-24T17:45:25.742Z,4.88
2018-12-24T17:47:57.186Z,4.76
2018-12-24T17:50:29.900Z,4.71
2018-12-24T17:53:01.564Z,4.63
2018-12-24T17:55:34.832Z,4.68
2018-12-24T17:58:07.359Z,4.73
2018-12-24T18:00:38.905Z,4.71
2018-12-24T18:03:10.620Z,4.70
2018-12-24T18:05:42.043Z,4.66
2018-12-24T18:08:13.536Z,4.67
2018-12-24T18:10:45.006Z,4.71
2018-12-24T18:13:16.619Z,4.79
2018-12-24T18:15:48.421Z,4.88
2018-12-24T18:18:19.947Z,4.98
2018-12-24T18:20:51.327Z,5.06
2018-12-24T18:23:22.774Z,5.10
2018-12-24T18:25:54.536Z,5.13
2018-12-24T18:28:26.024Z,5.11
2018-12-24T18:30:57.651Z,5.10
2018-12-24T18:33:29.203Z,5.10
2018-12-24T18:36:00.817Z,5.13
2018-12-24T18:38:32.661Z,5.18
2018-12-24T18:41:05.409Z,5.19
2018-12-24T18:43:37.309Z,5.24
2018-12-24T18:46:09.524Z,5.26
2018-12-24T18:48:41.948Z,5.20
2018-12-24T18:51:16.369Z,5.16
2018-12-24T18:53:49.303Z,5.08
2018-12-24T18:56:21.128Z,4.87
2018-12-24T18:58:52.555Z,4.76
2018-12-24T19:01:24.048Z,4.69
2018-12-24T19:03:56.043Z,4.62
2018-12-24T19:06:27.517Z,4.50
2018-12-24T19:08:59.057Z,4.43
2018-12-24T19:11:30.983Z,4.36
2018-12-24T19:14:02.545Z,4.29
2018-12-24T19:16:34.072Z,4.20
2018-12-24T19:19:05.501Z,4.11
2018-12-24T19:21:43.869Z,4.14
2018-12-24T19:24:10.051Z,4.16
2018-12-24T19:26:42.088Z,4.24
2018-12-24T19:29:14.608Z,4.40
2018-12-24T19:31:47.152Z,4.53
2018-12-24T19:34:23.537Z,4.59
2018-12-24T19:36:55.350Z,4.63
2018-12-24T19:39:27.891Z,4.70
2018-12-24T19:42:02.477Z,4.70
2018-12-24T19:44:33.997Z,4.68
2018-12-24T19:47:09.199Z,4.66
2018-12-24T19:49:41.644Z,4.63
2018-12-24T19:52:14.166Z,4.63
2018-12-24T19:54:49.537Z,4.61
2018-12-24T19:57:21.122Z,4.63
2018-12-24T19:59:52.591Z,4.59
2018-12-24T20:02:25.071Z,4.57
2018-12-24T20:04:56.690Z,4.59
2018-12-24T20:07:32.654Z,4.63
2018-12-24T20:10:05.059Z,4.64
2018-12-24T20:12:37.458Z,4.63
2018-12-24T20:15:08.925Z,4.59
2018-12-24T20:17:40.462Z,4.59
2018-12-24T20:20:12.310Z,4.58
2018-12-24T20:22:44.264Z,4.59
2018-12-24T20:25:17.060Z,4.55
2018-12-24T20:27:49.091Z,4.55
2018-12-24T20:30:20.536Z,4.52
2018-12-24T20:32:51.926Z,4.50
2018-12-24T20:35:23.385Z,4.49
2018-12-24T20:37:54.843Z,4.50
2018-12-24T20:40:26.243Z,4.53
2018-12-24T20:42:59.044Z,4.56
2018-12-24T20:45:30.767Z,4.57
2018-12-24T20:48:06.815Z,4.60
2018-12-24T20:50:36.275Z,4.56
2018-12-24T20:53:08.069Z,4.54
2018-12-24T20:55:39.576Z,4.54
2018-12-24T20:58:10.988Z,4.46
2018-12-24T21:00:42.506Z,4.38
2018-12-24T21:03:14.462Z,4.32
2018-12-24T21:05:45.864Z,4.27
2018-12-24T21:08:17.328Z,4.26
2018-12-24T21:10:48.825Z,4.22
2018-12-24T21:13:20.158Z,4.15
2018-12-24T21:15:51.643Z,4.08
2018-12-24T21:18:23.058Z,4.00
2018-12-24T21:20:54.507Z,3.97
2018-12-24T21:23:27.204Z,3.95
2018-12-24T21:25:58.920Z,3.90
2018-12-24T21:28:30.642Z,3.86
2018-12-24T21:31:02.125Z,3.82
2018-12-24T21:33:33.850Z,3.79
2018-12-24T21:36:05.299Z,3.82
2018-12-24T21:38:36.766Z,3.80
2018-12-24T21:41:08.228Z,3.65
2018-12-24T21:43:39.693Z,3.44
2018-12-24T21:46:11.065Z,3.21
2018-12-24T21:48:42.535Z,3.00
2018-12-24T21:51:13.982Z,2.83
2018-12-24T21:53:45.408Z,2.79
2018-12-24T21:56:16.780Z,2.69
2018-12-24T21:58:49.206Z,2.55
2018-12-24T22:01:20.689Z,2.49
2018-12-24T22:03:52.142Z,2.50
2018-12-24T22:06:23.609Z,2.48
2018-12-24T22:08:55.033Z,2.33
2018-12-24T22:11:27.477Z,2.20
2018-12-24T22:13:59.060Z,2.24
2018-12-24T22:16:30.587Z,2.33
2018-12-24T22:19:02.059Z,2.21
2018-12-24T22:21:33.532Z,2.17
2018-12-24T22:24:05.185Z,2.09
2018-12-24T22:26:37.597Z,2.00
2018-12-24T22:29:10.882Z,2.00
2018-12-24T22:31:42.269Z,2.12
2018-12-24T22:34:13.790Z,2.19
2018-12-24T22:36:45.272Z,2.09
2018-12-24T22:39:16.631Z,2.01
2018-12-24T22:41:48.387Z,2.01
2018-12-24T22:44:19.766Z,1.94
2018-12-24T22:46:51.251Z,1.89
2018-12-24T22:49:22.600Z,1.87
2018-12-24T22:51:54.083Z,1.74
2018-12-24T22:54:25.466Z,1.66
2018-12-24T22:56:56.886Z,1.59
2018-12-24T22:59:28.333Z,1.52
2018-12-24T23:02:00.361Z,1.58
2018-12-24T23:04:31.848Z,1.55
2018-12-24T23:07:03.372Z,1.50
2018-12-24T23:09:34.806Z,1.40
2018-12-24T23:12:06.238Z,1.39
2018-12-24T23:14:37.645Z,1.36
2018-12-24T23:17:09.098Z,1.51
2018-12-24T23:19:40.884Z,1.63
2018-12-24T23:22:12.318Z,1.61
2018-12-24T23:24:43.790Z,1.67
2018-12-24T23:27:15.296Z,1.61
2018-12-24T23:29:46.731Z,1.57
2018-12-24T23:32:18.141Z,1.45
2018-12-24T23:34:49.527Z,1.38
2018-12-24T23:37:21.009Z,1.29
2018-12-24T23:39:52.483Z,1.16
2018-12-24T23:42:23.922Z,1.08
2018-12-24T23:44:55.674Z,1.01
2018-12-24T23:47:27.132Z,0.91
2018-12-24T23:49:58.490Z,0.90
2018-12-24T23:52:31.161Z,0.84
2018-12-24T23:55:02.555Z,0.82
2018-12-24T23:57:35.379Z,0.76
